Terminal Aerodrome Forecast
Issued by NWS Cleveland, OH

Home | Current Version | Previous Version | Text Only | Print | Product List | Glossary Off
Versions: 1 2 3 4 5 6 7 8 9 10 11 12 13 14 15

287
FTUS41 KCLE 092340
TAFTOL
TAF
KTOL 092340Z 1000/1024 28012G22KT P6SM OVC025
     FM100600 27012KT P6SM OVC015
     FM100900 28012KT 4SM -SHSN OVC015
     FM101400 29015G22KT P6SM OVC025=

USA.gov is the U.S. government's official web portal to all federal, state and local government web resources and services.